createdAt,value
2022-08-23T00:02:00.621Z,7.45
2022-08-23T00:04:34.916Z,8.63
2022-08-23T00:07:04.666Z,8.70
2022-08-23T00:09:32.227Z,9.77
2022-08-23T00:12:11.668Z,8.27
2022-08-23T00:14:45.432Z,9.40
2022-08-23T00:17:33.552Z,8.43
2022-08-23T00:20:01.136Z,7.20
2022-08-23T00:22:28.618Z,8.05
2022-08-23T00:24:56.005Z,8.30
2022-08-23T00:27:23.350Z,6.90
2022-08-23T00:29:53.178Z,6.83
2022-08-23T00:32:30.338Z,8.70
2022-08-23T00:34:58.935Z,8.35
2022-08-23T00:37:27.187Z,8.90
2022-08-23T00:39:55.023Z,10.43
2022-08-23T00:43:06.614Z,9.93
2022-08-23T00:46:02.655Z,10.05
2022-08-23T00:48:30.899Z,11.18
2022-08-23T00:51:01.657Z,10.75
2022-08-23T00:53:36.049Z,9.85
2022-08-23T00:56:07.157Z,10.00
2022-08-23T00:58:34.584Z,10.38
2022-08-23T01:01:03.421Z,9.82
2022-08-23T01:03:38.588Z,10.45
2022-08-23T01:06:22.641Z,10.85
2022-08-23T01:09:00.129Z,9.83
2022-08-23T01:11:35.646Z,10.88
2022-08-23T01:14:12.317Z,10.77
2022-08-23T01:17:03.613Z,10.50
2022-08-23T01:19:41.857Z,10.25
2022-08-23T01:22:52.659Z,9.43
2022-08-23T01:25:22.588Z,10.43
2022-08-23T01:27:50.895Z,11.10
2022-08-23T01:30:22.936Z,11.27
2022-08-23T01:32:56.683Z,10.90
2022-08-23T01:35:31.586Z,11.47
2022-08-23T01:37:59.247Z,11.52
2022-08-23T01:40:28.925Z,10.52
2022-08-23T01:42:56.379Z,10.80
2022-08-23T01:45:24.094Z,11.38
2022-08-23T01:47:51.425Z,9.87
2022-08-23T01:50:19.345Z,9.45
2022-08-23T01:52:47.509Z,9.35
2022-08-23T01:55:15.148Z,7.72
2022-08-23T01:57:45.469Z,8.23
2022-08-23T02:00:16.139Z,7.27
2022-08-23T02:02:43.498Z,6.90
2022-08-23T02:05:11.084Z,5.78
2022-08-23T02:07:38.579Z,5.65
2022-08-23T02:10:09.989Z,6.43
2022-08-23T02:12:38.062Z,6.03
2022-08-23T02:15:06.227Z,5.85
2022-08-23T02:17:34.207Z,6.35
2022-08-23T02:20:03.396Z,5.65
2022-08-23T02:22:30.708Z,7.05
2022-08-23T02:24:58.588Z,6.60
2022-08-23T02:27:26.147Z,6.47
2022-08-23T02:29:53.739Z,5.72
2022-08-23T02:32:21.142Z,5.72
2022-08-23T02:34:59.891Z,6.20
2022-08-23T02:37:33.275Z,5.50
2022-08-23T02:40:01.029Z,5.78
2022-08-23T02:42:29.603Z,7.78
2022-08-23T02:44:56.904Z,7.25
2022-08-23T02:47:24.238Z,9.23
2022-08-23T02:49:53.381Z,9.03
2022-08-23T02:52:20.811Z,8.35
2022-08-23T02:54:48.203Z,9.15
2022-08-23T02:57:15.708Z,8.70
2022-08-23T02:59:43.263Z,9.45
2022-08-23T03:02:10.697Z,8.80
2022-08-23T03:04:38.220Z,8.77
2022-08-23T03:07:05.697Z,8.98
2022-08-23T03:09:33.181Z,7.93
2022-08-23T03:12:00.737Z,8.05
2022-08-23T03:14:28.418Z,8.33
2022-08-23T03:16:58.347Z,8.02
2022-08-23T03:19:26.036Z,8.50
2022-08-23T03:21:53.576Z,7.63
2022-08-23T03:24:22.460Z,8.27
2022-08-23T03:26:50.296Z,8.00
2022-08-23T03:29:19.901Z,7.88
2022-08-23T03:31:47.344Z,7.22
2022-08-23T03:34:14.945Z,8.13
2022-08-23T03:36:42.524Z,10.27
2022-08-23T03:39:09.949Z,9.40
2022-08-23T03:41:37.380Z,9.32
2022-08-23T03:44:05.447Z,9.60
2022-08-23T03:46:34.207Z,10.80
2022-08-23T03:49:02.843Z,9.05
2022-08-23T03:51:32.759Z,9.10
2022-08-23T03:54:00.599Z,7.53
2022-08-23T03:56:29.533Z,7.68
2022-08-23T03:59:00.983Z,7.60
2022-08-23T04:01:28.931Z,9.82
2022-08-23T04:04:00.256Z,9.53
2022-08-23T04:06:29.106Z,9.55
2022-08-23T04:08:57.023Z,9.93
2022-08-23T04:11:25.743Z,9.43
2022-08-23T04:13:53.027Z,9.75
2022-08-23T04:16:20.803Z,9.97
2022-08-23T04:18:48.748Z,10.25
2022-08-23T04:21:20.150Z,9.40
2022-08-23T04:23:47.671Z,8.38
2022-08-23T04:26:15.400Z,9.60
2022-08-23T04:28:43.837Z,8.27
2022-08-23T04:31:11.716Z,7.65
2022-08-23T04:33:40.218Z,7.82
2022-08-23T04:36:08.476Z,7.38
2022-08-23T04:38:36.087Z,7.93
2022-08-23T04:41:22.276Z,7.70
2022-08-23T04:43:49.748Z,6.88
2022-08-23T04:46:17.264Z,7.65
2022-08-23T04:48:46.255Z,7.18
2022-08-23T04:51:14.406Z,7.20
2022-08-23T04:53:42.420Z,6.80
2022-08-23T04:56:10.332Z,8.20
2022-08-23T04:58:39.292Z,7.15
2022-08-23T05:01:09.209Z,6.88
2022-08-23T05:03:36.764Z,7.05
2022-08-23T05:06:07.748Z,7.05
2022-08-23T05:08:35.861Z,6.85
2022-08-23T05:11:05.904Z,6.88
2022-08-23T05:13:34.760Z,6.60
2022-08-23T05:16:03.257Z,6.10
2022-08-23T05:18:31.374Z,6.63
2022-08-23T05:20:58.861Z,6.30
2022-08-23T05:23:32.019Z,5.90
2022-08-23T05:26:01.226Z,5.95
2022-08-23T05:28:31.777Z,6.32
2022-08-23T05:31:13.612Z,6.30
2022-08-23T05:33:42.849Z,5.50
2022-08-23T05:36:12.296Z,6.13
2022-08-23T05:38:40.816Z,6.43
2022-08-23T05:41:08.413Z,5.35
2022-08-23T05:43:36.370Z,5.37
2022-08-23T05:46:07.265Z,5.93
2022-08-23T05:48:41.836Z,5.88
2022-08-23T05:51:24.733Z,5.75
2022-08-23T05:53:53.465Z,6.40
2022-08-23T05:56:24.157Z,4.70
2022-08-23T05:58:57.840Z,5.10
2022-08-23T06:01:29.103Z,5.10
2022-08-23T06:03:58.685Z,5.00
2022-08-23T06:06:35.042Z,5.18
2022-08-23T06:09:07.676Z,4.87
2022-08-23T06:11:35.734Z,4.97
2022-08-23T06:14:05.556Z,4.78
2022-08-23T06:16:39.116Z,4.57
2022-08-23T06:19:08.588Z,4.95
2022-08-23T06:21:37.113Z,4.83
2022-08-23T06:24:04.800Z,4.38
2022-08-23T06:26:41.655Z,28.58
2022-08-23T06:29:11.716Z,5.97
2022-08-23T06:31:48.106Z,5.88
2022-08-23T06:34:33.750Z,4.70
2022-08-23T06:37:07.075Z,4.80
2022-08-23T06:39:37.522Z,5.10
2022-08-23T06:42:37.648Z,4.85
2022-08-23T06:45:01.546Z,4.80
2022-08-23T06:47:29.117Z,4.20
2022-08-23T06:49:57.741Z,4.72
2022-08-23T06:52:27.899Z,5.13
2022-08-23T06:54:55.955Z,4.38
2022-08-23T06:57:25.095Z,4.65
2022-08-23T06:59:52.826Z,4.47
2022-08-23T07:02:20.532Z,4.43
2022-08-23T07:04:54.355Z,4.53
2022-08-23T07:07:21.965Z,4.55
2022-08-23T07:09:49.599Z,3.80
2022-08-23T07:12:17.518Z,5.27
2022-08-23T07:14:44.994Z,4.32
2022-08-23T07:17:12.973Z,4.20
2022-08-23T07:19:41.776Z,4.00
2022-08-23T07:22:09.200Z,4.03
2022-08-23T07:24:37.960Z,4.10
2022-08-23T07:27:09.827Z,4.43
2022-08-23T07:29:39.895Z,4.20
2022-08-23T07:32:07.947Z,4.03
2022-08-23T07:34:36.212Z,4.07
2022-08-23T07:37:04.538Z,3.73
2022-08-23T07:39:38.932Z,3.72
2022-08-23T07:42:22.963Z,4.32
2022-08-23T07:44:53.216Z,3.70
2022-08-23T07:47:22.164Z,3.45
2022-08-23T07:49:49.948Z,3.83
2022-08-23T07:52:17.554Z,4.55
2022-08-23T07:54:47.749Z,4.07
2022-08-23T07:57:17.403Z,3.65
2022-08-23T07:59:44.951Z,4.45
2022-08-23T08:02:12.399Z,3.53
2022-08-23T08:04:40.251Z,3.47
2022-08-23T08:07:23.089Z,3.80
2022-08-23T08:09:50.582Z,3.45
2022-08-23T08:12:18.698Z,3.72
2022-08-23T08:14:48.654Z,3.50
2022-08-23T08:17:18.617Z,3.92
2022-08-23T08:19:46.358Z,3.80
2022-08-23T08:22:13.887Z,4.00
2022-08-23T08:24:41.493Z,3.95
2022-08-23T08:27:09.071Z,3.73
2022-08-23T08:29:36.886Z,3.85
2022-08-23T08:32:04.556Z,3.85
2022-08-23T08:34:32.010Z,4.03
2022-08-23T08:36:59.924Z,3.35
2022-08-23T08:39:31.268Z,3.47
2022-08-23T08:42:45.861Z,4.35
2022-08-23T08:45:20.047Z,3.28
2022-08-23T08:48:03.033Z,3.05
2022-08-23T08:50:53.702Z,3.70
2022-08-23T08:53:32.998Z,3.57
2022-08-23T08:56:08.416Z,3.15
2022-08-23T08:58:46.293Z,3.53
2022-08-23T09:01:17.680Z,3.00
2022-08-23T09:03:46.311Z,3.50
2022-08-23T09:06:23.819Z,3.10
2022-08-23T09:09:09.572Z,3.95
2022-08-23T09:11:56.970Z,3.25
2022-08-23T09:14:59.028Z,3.92
2022-08-23T09:17:58.330Z,3.22
2022-08-23T09:20:32.893Z,2.43
2022-08-23T09:23:13.536Z,2.92
2022-08-23T09:25:41.981Z,3.25
2022-08-23T09:28:09.605Z,3.70
2022-08-23T09:30:51.436Z,3.67
2022-08-23T09:33:23.218Z,3.03
2022-08-23T09:36:19.416Z,3.35
2022-08-23T09:38:57.464Z,3.42
2022-08-23T09:41:28.578Z,2.80
2022-08-23T09:43:56.030Z,3.72
2022-08-23T09:46:30.721Z,2.97
2022-08-23T09:48:59.344Z,3.63
2022-08-23T09:51:36.251Z,4.28
2022-08-23T09:54:18.184Z,3.65
2022-08-23T09:57:02.240Z,3.80
2022-08-23T09:59:52.084Z,3.13
2022-08-23T10:02:35.514Z,3.50
2022-08-23T10:05:29.305Z,3.45
2022-08-23T10:08:02.814Z,3.72
2022-08-23T10:10:44.118Z,3.63
2022-08-23T10:13:15.740Z,3.50
2022-08-23T10:16:12.623Z,3.45
2022-08-23T10:19:11.224Z,3.45
2022-08-23T10:22:05.095Z,3.83
2022-08-23T10:24:47.769Z,4.18
2022-08-23T10:27:42.545Z,3.80
2022-08-23T10:30:37.972Z,3.38
2022-08-23T10:33:08.770Z,6.68
2022-08-23T10:36:01.091Z,4.20
2022-08-23T10:38:51.069Z,3.60
2022-08-23T10:41:47.999Z,3.00
2022-08-23T10:44:25.854Z,3.65
2022-08-23T10:47:14.513Z,3.72
2022-08-23T10:49:43.499Z,3.33
2022-08-23T10:52:18.642Z,3.40
2022-08-23T10:55:16.872Z,4.10
2022-08-23T10:57:47.305Z,3.20
2022-08-23T11:00:19.113Z,3.20
2022-08-23T11:03:14.029Z,3.30
2022-08-23T11:05:43.320Z,3.72
2022-08-23T11:08:30.343Z,4.07
2022-08-23T11:10:57.927Z,3.78
2022-08-23T11:13:28.215Z,3.67
2022-08-23T11:16:07.210Z,3.90
2022-08-23T11:18:34.575Z,3.38
2022-08-23T11:21:26.112Z,3.47
2022-08-23T11:23:59.572Z,3.58
2022-08-23T11:26:27.058Z,3.72
2022-08-23T11:29:06.629Z,3.70
2022-08-23T11:32:02.243Z,3.65
2022-08-23T11:34:43.950Z,3.80
2022-08-23T11:37:20.484Z,3.42
2022-08-23T11:39:59.948Z,3.70
2022-08-23T11:42:30.433Z,3.83
2022-08-23T11:44:58.116Z,4.10
2022-08-23T11:47:39.290Z,3.93
2022-08-23T11:50:26.393Z,4.60
2022-08-23T11:53:05.410Z,4.32
2022-08-23T11:55:51.180Z,4.80
2022-08-23T11:58:23.619Z,3.80
2022-08-23T12:01:12.801Z,3.97
2022-08-23T12:03:52.918Z,4.50
2022-08-23T12:06:21.467Z,4.97
2022-08-23T12:09:01.930Z,4.63
2022-08-23T12:12:33.668Z,4.47
2022-08-23T12:15:12.064Z,4.10
2022-08-23T12:17:42.388Z,4.30
2022-08-23T12:20:22.389Z,4.85
2022-08-23T12:23:08.092Z,3.78
2022-08-23T12:25:38.008Z,4.50
2022-08-23T12:28:31.768Z,4.07
2022-08-23T12:31:07.866Z,4.03
2022-08-23T12:34:25.343Z,4.50
2022-08-23T12:37:12.953Z,4.15
2022-08-23T12:39:52.933Z,4.68
2022-08-23T12:42:28.481Z,4.40
2022-08-23T12:45:05.213Z,5.22
2022-08-23T12:47:33.235Z,4.50
2022-08-23T12:50:07.216Z,4.40
2022-08-23T12:52:37.542Z,4.20
2022-08-23T12:55:15.236Z,3.93
2022-08-23T12:57:44.170Z,4.38
2022-08-23T13:00:17.534Z,4.60
2022-08-23T13:03:13.949Z,4.15
2022-08-23T13:05:46.667Z,4.03
2022-08-23T13:08:46.566Z,4.07
2022-08-23T13:11:18.757Z,3.70
2022-08-23T13:13:46.822Z,4.00
2022-08-23T13:16:37.275Z,3.60
2022-08-23T13:19:31.145Z,4.20
2022-08-23T13:22:10.945Z,3.60
2022-08-23T13:25:24.762Z,3.72
2022-08-23T13:27:45.216Z,3.72
2022-08-23T13:30:17.982Z,3.80
2022-08-23T13:32:49.800Z,4.10
2022-08-23T13:35:34.637Z,3.87
2022-08-23T13:38:21.173Z,3.85
2022-08-23T13:41:04.308Z,3.78
2022-08-23T13:43:43.575Z,3.70
2022-08-23T13:46:29.395Z,4.25
2022-08-23T13:49:27.590Z,3.03
2022-08-23T13:52:33.501Z,3.50
2022-08-23T13:54:52.512Z,3.88
2022-08-23T13:57:22.274Z,3.22
2022-08-23T13:59:53.241Z,3.67
2022-08-23T14:02:22.596Z,3.70
2022-08-23T14:04:50.425Z,3.45
2022-08-23T14:07:18.795Z,3.55
2022-08-23T14:09:46.468Z,3.40
2022-08-23T14:12:18.480Z,3.65
2022-08-23T14:14:46.905Z,4.37
2022-08-23T14:17:16.492Z,4.13
2022-08-23T14:22:35.316Z,4.05
2022-08-23T14:25:02.951Z,4.72
2022-08-23T14:27:30.586Z,3.93
2022-08-23T14:29:58.070Z,3.60
2022-08-23T14:32:25.688Z,4.93
2022-08-23T14:34:53.238Z,4.18
2022-08-23T14:38:00.454Z,3.65
2022-08-23T14:40:09.951Z,4.20
2022-08-23T14:42:37.543Z,5.70
2022-08-23T14:45:06.310Z,4.47
2022-08-23T14:47:35.670Z,4.25
2022-08-23T14:50:08.160Z,4.47
2022-08-23T14:52:38.950Z,3.70
2022-08-23T14:55:07.110Z,3.58
2022-08-23T14:57:34.925Z,4.60
2022-08-23T15:00:02.732Z,4.43
2022-08-23T15:02:30.698Z,4.10
2022-08-23T15:04:58.242Z,4.07
2022-08-23T15:07:25.635Z,4.13
2022-08-23T15:09:57.046Z,5.10
2022-08-23T15:15:22.072Z,4.55
2022-08-23T15:17:59.248Z,4.33
2022-08-23T15:20:33.118Z,4.68
2022-08-23T15:23:01.327Z,4.22
2022-08-23T15:25:35.714Z,4.00
2022-08-23T15:28:06.776Z,4.72
2022-08-23T15:30:37.289Z,3.47
2022-08-23T15:33:05.286Z,4.32
2022-08-23T15:35:44.409Z,3.95
2022-08-23T15:38:14.219Z,4.07
2022-08-23T15:40:41.995Z,4.82
2022-08-23T15:43:09.418Z,4.23
2022-08-23T15:45:37.775Z,4.57
2022-08-23T15:48:12.929Z,4.38
2022-08-23T15:50:46.352Z,4.53
2022-08-23T15:53:15.081Z,4.18
2022-08-23T15:55:43.919Z,4.37
2022-08-23T15:58:16.873Z,3.95
2022-08-23T16:00:45.260Z,3.72
2022-08-23T16:03:20.015Z,4.05
2022-08-23T16:05:51.609Z,4.35
2022-08-23T16:08:27.501Z,3.93
2022-08-23T16:10:55.256Z,4.18
2022-08-23T16:13:23.268Z,4.28
2022-08-23T16:15:51.038Z,4.25
2022-08-23T16:18:19.086Z,4.10
2022-08-23T16:20:46.673Z,4.60
2022-08-23T16:23:14.403Z,4.80
2022-08-23T16:25:43.397Z,5.28
2022-08-23T16:28:10.989Z,5.13
2022-08-23T16:30:38.823Z,4.57
2022-08-23T16:33:06.299Z,4.43
2022-08-23T16:35:33.855Z,4.70
2022-08-23T16:38:03.372Z,5.22
2022-08-23T16:40:30.877Z,4.35
2022-08-23T16:42:58.561Z,7.10
2022-08-23T16:45:30.548Z,4.47
2022-08-23T16:47:58.210Z,4.25
2022-08-23T16:50:26.116Z,4.60
2022-08-23T16:52:53.775Z,4.65
2022-08-23T16:55:21.267Z,4.65
2022-08-23T16:57:48.896Z,4.53
2022-08-23T17:00:18.614Z,4.18
2022-08-23T17:02:46.560Z,4.63
2022-08-23T17:05:17.231Z,4.13
2022-08-23T17:07:44.815Z,4.32
2022-08-23T17:10:14.062Z,4.53
2022-08-23T17:12:47.080Z,4.88
2022-08-23T17:15:20.506Z,4.50
2022-08-23T17:17:48.820Z,5.13
2022-08-23T17:20:17.304Z,4.97
2022-08-23T17:22:44.745Z,5.17
2022-08-23T17:25:15.503Z,4.55
2022-08-23T17:27:46.265Z,4.35
2022-08-23T17:30:17.464Z,4.70
2022-08-23T17:32:47.967Z,45.47
2022-08-23T17:35:20.717Z,7.97
2022-08-23T17:37:48.285Z,4.32
2022-08-23T17:40:21.052Z,4.78
2022-08-23T17:42:50.155Z,4.45
2022-08-23T17:45:18.732Z,4.80
2022-08-23T17:47:47.095Z,4.80
2022-08-23T17:50:15.888Z,5.97
2022-08-23T17:52:43.608Z,6.38
2022-08-23T17:55:12.127Z,5.63
2022-08-23T17:57:41.113Z,7.10
2022-08-23T18:00:09.598Z,7.43
2022-08-23T18:02:37.890Z,11.18
2022-08-23T18:05:07.092Z,17.50
2022-08-23T18:07:36.139Z,14.80
2022-08-23T18:10:06.760Z,21.38
2022-08-23T18:12:35.378Z,17.60
2022-08-23T18:15:04.629Z,14.73
2022-08-23T18:17:33.334Z,11.43
2022-08-23T18:20:01.381Z,10.60
2022-08-23T18:22:29.108Z,8.55
2022-08-23T18:24:56.943Z,6.60
2022-08-23T18:27:42.748Z,5.90
2022-08-23T18:30:11.915Z,6.00
2022-08-23T18:32:39.357Z,5.72
2022-08-23T18:35:08.108Z,12.18
2022-08-23T18:37:35.700Z,6.17
2022-08-23T18:40:07.762Z,5.97
2022-08-23T18:42:37.471Z,6.28
2022-08-23T18:45:06.782Z,6.32
2022-08-23T18:47:35.271Z,6.38
2022-08-23T18:50:04.027Z,6.83
2022-08-23T18:52:33.270Z,6.80
2022-08-23T18:55:00.674Z,6.40
2022-08-23T18:57:28.195Z,6.90
2022-08-23T18:59:55.829Z,6.75
2022-08-23T19:02:24.549Z,6.60
2022-08-23T19:04:53.715Z,6.82
2022-08-23T19:07:23.066Z,10.50
2022-08-23T19:09:50.940Z,6.45
2022-08-23T19:12:18.429Z,6.50
2022-08-23T19:14:46.180Z,6.47
2022-08-23T19:17:14.394Z,6.60
2022-08-23T19:19:41.955Z,6.88
2022-08-23T19:22:09.621Z,6.68
2022-08-23T19:24:37.274Z,6.60
2022-08-23T19:27:04.996Z,5.83
2022-08-23T19:29:32.425Z,6.53
2022-08-23T19:32:00.014Z,6.53
2022-08-23T19:34:27.660Z,6.43
2022-08-23T19:37:00.856Z,6.60
2022-08-23T19:39:30.031Z,6.70
2022-08-23T19:41:58.104Z,6.93
2022-08-23T19:44:25.740Z,7.57
2022-08-23T19:46:55.233Z,8.07
2022-08-23T19:49:23.515Z,7.95
2022-08-23T19:51:53.036Z,7.33
2022-08-23T19:54:21.456Z,7.40
2022-08-23T19:56:57.879Z,7.35
2022-08-23T19:59:38.985Z,7.03
2022-08-23T20:02:08.947Z,7.47
2022-08-23T20:04:37.225Z,7.70
2022-08-23T20:07:05.730Z,9.57
2022-08-23T20:09:33.821Z,9.50
2022-08-23T20:12:01.425Z,9.35
2022-08-23T20:14:31.305Z,9.05
2022-08-23T20:16:58.944Z,8.20
2022-08-23T20:19:27.022Z,8.02
2022-08-23T20:22:16.322Z,8.85
2022-08-23T20:24:51.389Z,8.55
2022-08-23T20:27:27.805Z,9.02
2022-08-23T20:29:59.144Z,8.87
2022-08-23T20:32:26.975Z,8.73
2022-08-23T20:34:54.385Z,9.05
2022-08-23T20:37:22.424Z,8.25
2022-08-23T20:39:50.082Z,9.30
2022-08-23T20:42:17.661Z,9.10
2022-08-23T20:44:45.106Z,8.65
2022-08-23T20:47:13.126Z,10.27
2022-08-23T20:49:41.021Z,10.63
2022-08-23T20:52:08.767Z,12.15
2022-08-23T20:54:36.825Z,10.83
2022-08-23T20:57:04.551Z,9.93
2022-08-23T20:59:31.943Z,10.43
2022-08-23T21:01:59.488Z,9.50
2022-08-23T21:04:30.340Z,11.13
2022-08-23T21:06:58.940Z,10.50
2022-08-23T21:09:29.300Z,9.88
2022-08-23T21:11:57.981Z,10.77
2022-08-23T21:14:25.660Z,10.48
2022-08-23T21:16:52.981Z,11.50
2022-08-23T21:19:20.421Z,9.73
2022-08-23T21:21:47.942Z,10.25
2022-08-23T21:24:15.668Z,9.88
2022-08-23T21:26:43.581Z,10.20
2022-08-23T21:29:11.623Z,9.93
2022-08-23T21:31:39.248Z,9.93
2022-08-23T21:34:07.848Z,9.88
2022-08-23T21:36:36.169Z,9.40
2022-08-23T21:39:04.578Z,9.45
2022-08-23T21:41:37.371Z,9.27
2022-08-23T21:44:07.328Z,10.43
2022-08-23T21:46:36.157Z,9.98
2022-08-23T21:49:05.037Z,10.35
2022-08-23T21:51:34.990Z,9.82
2022-08-23T21:54:05.564Z,10.25
2022-08-23T21:56:34.085Z,10.10
2022-08-23T21:59:05.677Z,10.52
2022-08-23T22:01:36.092Z,9.50
2022-08-23T22:04:07.888Z,8.68
2022-08-23T22:06:35.912Z,8.68
2022-08-23T22:09:05.112Z,8.93
2022-08-23T22:11:32.793Z,8.35
2022-08-23T22:14:00.592Z,9.50
2022-08-23T22:16:27.927Z,10.30
2022-08-23T22:18:55.322Z,9.13
2022-08-23T22:21:23.362Z,9.43
2022-08-23T22:23:50.752Z,9.10
2022-08-23T22:26:18.236Z,9.43
2022-08-23T22:28:45.935Z,8.50
2022-08-23T22:31:15.783Z,8.85
2022-08-23T22:33:46.177Z,9.40
2022-08-23T22:36:19.499Z,9.00
2022-08-23T22:38:47.853Z,9.48
2022-08-23T22:41:22.373Z,8.73
2022-08-23T22:43:50.773Z,8.95
2022-08-23T22:46:18.582Z,8.57
2022-08-23T22:48:46.497Z,9.10
2022-08-23T22:51:16.733Z,8.70
2022-08-23T22:53:48.659Z,8.95
2022-08-23T22:56:19.694Z,9.80
2022-08-23T22:58:47.900Z,8.43
2022-08-23T23:01:35.371Z,7.50
2022-08-23T23:04:08.735Z,8.85
2022-08-23T23:06:37.745Z,8.05
2022-08-23T23:09:07.737Z,8.77
2022-08-23T23:11:35.971Z,8.60
2022-08-23T23:14:05.613Z,8.98
2022-08-23T23:16:34.470Z,8.45
2022-08-23T23:19:21.177Z,7.72
2022-08-23T23:21:53.514Z,8.15
2022-08-23T23:24:24.465Z,7.63
2022-08-23T23:26:52.878Z,7.25
2022-08-23T23:29:20.454Z,7.30
2022-08-23T23:31:48.538Z,7.85
2022-08-23T23:34:16.333Z,7.97
2022-08-23T23:36:44.254Z,7.47
2022-08-23T23:39:14.015Z,8.10
2022-08-23T23:41:42.254Z,7.72
2022-08-23T23:44:11.293Z,7.63
2022-08-23T23:46:39.053Z,7.70
2022-08-23T23:49:06.986Z,7.20
2022-08-23T23:51:35.054Z,7.10
2022-08-23T23:54:03.017Z,7.70
2022-08-23T23:56:35.693Z,8.48
2022-08-23T23:59:03.457Z,7.65
